createdAt,value
2019-01-06T00:00:42.179Z,3.40
2019-01-06T00:03:29.609Z,3.40
2019-01-06T00:06:26.031Z,3.40
2019-01-06T00:09:19.738Z,3.40
2019-01-06T00:12:05.658Z,3.30
2019-01-06T00:15:02.372Z,3.20
2019-01-06T00:17:50.844Z,3.10
2019-01-06T00:20:40.931Z,3.00
2019-01-06T00:23:29.048Z,2.90
2019-01-06T00:26:12.606Z,2.90
2019-01-06T00:29:04.547Z,2.90
2019-01-06T00:31:53.798Z,3.00
2019-01-06T00:34:56.182Z,3.00
2019-01-06T00:37:37.938Z,3.00
2019-01-06T00:40:22.111Z,3.00
2019-01-06T00:43:00.924Z,2.90
2019-01-06T00:45:46.939Z,2.80
2019-01-06T00:48:26.812Z,2.70
2019-01-06T00:51:19.211Z,2.70
2019-01-06T00:54:05.290Z,2.70
2019-01-06T00:57:07.687Z,2.70
2019-01-06T00:59:45.898Z,2.70
2019-01-06T01:02:45.712Z,2.70
2019-01-06T01:05:44.611Z,2.70
2019-01-06T01:08:46.839Z,2.60
2019-01-06T01:11:36.455Z,2.70
2019-01-06T01:14:23.515Z,2.70
2019-01-06T01:17:09.419Z,2.60
2019-01-06T01:19:55.544Z,2.60
2019-01-06T01:22:46.522Z,2.60
2019-01-06T01:25:25.449Z,2.50
2019-01-06T01:28:15.879Z,2.50
2019-01-06T01:31:15.035Z,2.40
2019-01-06T01:34:07.927Z,2.30
2019-01-06T01:36:53.938Z,2.30
2019-01-06T01:39:46.267Z,2.20
2019-01-06T01:42:27.638Z,2.10
2019-01-06T01:45:12.818Z,2.10
2019-01-06T01:47:55.048Z,2.00
2019-01-06T01:50:37.453Z,1.90
2019-01-06T01:53:25.379Z,1.90
2019-01-06T01:56:15.478Z,1.90
2019-01-06T01:59:00.660Z,1.80
2019-01-06T02:01:49.558Z,1.80
2019-01-06T02:04:34.567Z,1.80
2019-01-06T02:07:27.763Z,1.80
2019-01-06T02:10:13.395Z,1.80
2019-01-06T02:12:56.047Z,1.80
2019-01-06T02:15:41.702Z,1.80
2019-01-06T02:18:21.274Z,1.80
2019-01-06T02:20:58.655Z,1.90
2019-01-06T02:23:44.554Z,1.90
2019-01-06T02:26:28.499Z,1.90
2019-01-06T02:29:10.820Z,2.00
2019-01-06T02:32:00.788Z,2.00
2019-01-06T02:34:46.290Z,2.00
2019-01-06T02:37:23.962Z,2.00
2019-01-06T02:40:15.472Z,2.00
2019-01-06T02:43:01.162Z,2.10
2019-01-06T02:45:51.274Z,2.10
2019-01-06T02:48:36.398Z,2.10
2019-01-06T02:51:31.080Z,2.10
2019-01-06T02:54:34.057Z,2.00
2019-01-06T02:57:36.502Z,1.90
2019-01-06T03:00:27.077Z,1.80
2019-01-06T03:03:25.792Z,1.80
2019-01-06T03:06:09.503Z,1.90
2019-01-06T03:09:05.742Z,1.90
2019-01-06T03:11:55.321Z,1.90
2019-01-06T03:14:36.441Z,2.00
2019-01-06T03:17:25.528Z,2.00
2019-01-06T03:20:11.138Z,2.00
2019-01-06T03:23:01.239Z,2.10
2019-01-06T03:25:47.127Z,2.10
2019-01-06T03:28:27.185Z,2.20
2019-01-06T03:31:13.142Z,2.20
2019-01-06T03:33:59.171Z,2.20
2019-01-06T03:36:45.249Z,2.20
2019-01-06T03:39:31.420Z,2.30
2019-01-06T03:42:17.504Z,2.30
2019-01-06T03:45:06.826Z,2.20
2019-01-06T03:47:47.021Z,2.30
2019-01-06T03:50:33.005Z,2.20
2019-01-06T03:53:19.791Z,2.30
2019-01-06T03:56:05.884Z,2.30
2019-01-06T03:58:50.034Z,2.30
2019-01-06T04:01:40.442Z,2.40
2019-01-06T04:04:17.830Z,2.30
2019-01-06T04:07:10.718Z,2.30
2019-01-06T04:09:53.491Z,2.30
2019-01-06T04:12:39.479Z,2.40
2019-01-06T04:15:29.596Z,2.30
2019-01-06T04:18:15.625Z,2.30
2019-01-06T04:21:01.210Z,2.30
2019-01-06T04:23:44.891Z,2.30
2019-01-06T04:26:41.354Z,2.30
2019-01-06T04:29:26.474Z,2.30
2019-01-06T04:32:19.903Z,2.30
2019-01-06T04:35:16.261Z,2.30
2019-01-06T04:38:02.076Z,2.30
2019-01-06T04:40:52.178Z,2.20
2019-01-06T04:43:37.984Z,2.20
2019-01-06T04:46:35.335Z,2.20
2019-01-06T04:49:22.927Z,2.20
2019-01-06T04:52:08.890Z,2.20
2019-01-06T04:55:11.415Z,2.30
2019-01-06T04:58:02.638Z,2.20
2019-01-06T05:00:48.534Z,2.20
2019-01-06T05:03:46.531Z,2.20
2019-01-06T05:06:38.747Z,2.10
2019-01-06T05:09:27.387Z,2.20
2019-01-06T05:12:03.848Z,2.20
2019-01-06T05:14:49.937Z,2.20
2019-01-06T05:17:46.227Z,2.20
2019-01-06T05:20:46.970Z,2.10
2019-01-06T05:23:37.080Z,2.10
2019-01-06T05:26:33.980Z,2.20
2019-01-06T05:29:26.201Z,2.20
2019-01-06T05:32:18.964Z,2.20
2019-01-06T05:35:07.468Z,2.10
2019-01-06T05:38:02.110Z,2.00
2019-01-06T05:41:02.628Z,2.10
2019-01-06T05:43:49.687Z,2.00
2019-01-06T05:46:37.890Z,2.10
2019-01-06T05:49:23.146Z,2.10
2019-01-06T05:52:18.643Z,2.10
2019-01-06T05:55:04.940Z,2.10
2019-01-06T05:57:52.820Z,2.00
2019-01-06T06:00:38.798Z,2.00
2019-01-06T06:03:18.969Z,2.10
2019-01-06T06:06:02.998Z,2.10
2019-01-06T06:08:52.807Z,2.00
2019-01-06T06:11:34.277Z,2.00
2019-01-06T06:14:37.270Z,2.00
2019-01-06T06:17:22.978Z,2.00
2019-01-06T06:20:10.723Z,2.00
2019-01-06T06:23:02.731Z,2.00
2019-01-06T06:25:49.966Z,2.00
2019-01-06T06:28:30.415Z,2.00
2019-01-06T06:31:16.656Z,2.10
2019-01-06T06:33:57.833Z,2.10
2019-01-06T06:36:38.066Z,2.10
2019-01-06T06:39:30.145Z,2.10
2019-01-06T06:42:13.190Z,2.10
2019-01-06T06:45:05.242Z,2.00
2019-01-06T06:47:51.226Z,2.10
2019-01-06T06:50:37.225Z,2.10
2019-01-06T06:53:22.179Z,2.10
2019-01-06T06:56:01.326Z,2.20
2019-01-06T06:58:48.777Z,2.20
2019-01-06T07:01:59.199Z,2.20
2019-01-06T07:04:55.137Z,2.20
2019-01-06T07:07:41.186Z,2.20
2019-01-06T07:10:36.966Z,2.20
2019-01-06T07:13:27.022Z,2.20
2019-01-06T07:16:16.615Z,2.20
2019-01-06T07:19:02.694Z,2.20
2019-01-06T07:21:48.636Z,2.20
2019-01-06T07:24:41.576Z,2.30
2019-01-06T07:27:27.463Z,2.30
2019-01-06T07:30:20.615Z,2.20
2019-01-06T07:33:03.116Z,2.20
2019-01-06T07:35:53.537Z,2.20
2019-01-06T07:38:39.466Z,2.20
2019-01-06T07:41:20.507Z,2.20
2019-01-06T07:44:06.299Z,2.20
2019-01-06T07:47:05.365Z,2.20
2019-01-06T07:49:59.757Z,2.20
2019-01-06T07:52:36.969Z,2.30
2019-01-06T07:55:23.166Z,2.20
2019-01-06T07:57:59.265Z,2.30
2019-01-06T08:00:53.122Z,2.20
2019-01-06T08:03:39.783Z,2.20
2019-01-06T08:06:25.813Z,2.30
2019-01-06T08:09:11.914Z,2.30
2019-01-06T08:11:52.141Z,2.40
2019-01-06T08:14:39.437Z,2.50
2019-01-06T08:17:38.742Z,2.50
2019-01-06T08:20:28.682Z,2.40
2019-01-06T08:23:14.866Z,2.50
2019-01-06T08:26:00.946Z,2.50
2019-01-06T08:28:50.599Z,2.60
2019-01-06T08:31:36.606Z,2.60
2019-01-06T08:34:22.563Z,2.60
2019-01-06T08:37:14.847Z,2.60
2019-01-06T08:40:00.827Z,2.60
2019-01-06T08:42:56.545Z,2.60
2019-01-06T08:45:42.586Z,2.60
2019-01-06T08:48:28.709Z,2.70
2019-01-06T08:51:11.575Z,2.70
2019-01-06T08:54:00.602Z,2.80
2019-01-06T08:56:46.554Z,2.80
2019-01-06T08:59:35.372Z,2.90
2019-01-06T09:02:25.313Z,3.00
2019-01-06T09:05:11.493Z,3.00
2019-01-06T09:08:17.011Z,3.00
2019-01-06T09:11:12.802Z,3.00
2019-01-06T09:13:53.548Z,3.00
2019-01-06T09:16:40.434Z,3.00
2019-01-06T09:19:30.513Z,3.10
2019-01-06T09:22:26.928Z,3.10
2019-01-06T09:25:13.975Z,3.20
2019-01-06T09:28:07.253Z,3.40
2019-01-06T09:31:02.051Z,3.40
2019-01-06T09:33:47.723Z,3.50
2019-01-06T09:36:34.122Z,3.60
2019-01-06T09:39:23.578Z,3.70
2019-01-06T09:42:08.881Z,3.80
2019-01-06T09:44:51.179Z,3.90
2019-01-06T09:47:44.340Z,3.90
2019-01-06T09:50:26.555Z,4.00
2019-01-06T09:53:11.630Z,3.90
2019-01-06T09:56:06.942Z,4.00
2019-01-06T09:59:09.018Z,4.00
2019-01-06T10:01:55.023Z,3.90
2019-01-06T10:04:43.410Z,3.90
2019-01-06T10:07:29.479Z,3.70
2019-01-06T10:10:15.645Z,3.70
2019-01-06T10:13:01.797Z,3.70
2019-01-06T10:15:58.427Z,3.70
2019-01-06T10:18:44.264Z,3.70
2019-01-06T10:21:40.767Z,3.80
2019-01-06T10:24:30.582Z,3.80
2019-01-06T10:27:15.094Z,3.80
2019-01-06T10:29:55.711Z,4.00
2019-01-06T10:32:37.059Z,4.10
2019-01-06T10:35:36.849Z,4.20
2019-01-06T10:38:34.965Z,4.30
2019-01-06T10:41:20.703Z,4.30
2019-01-06T10:44:03.181Z,4.40
2019-01-06T10:46:59.017Z,4.50
2019-01-06T10:49:48.900Z,4.50
2019-01-06T10:52:34.944Z,4.40
2019-01-06T10:55:26.715Z,4.50
2019-01-06T10:58:20.038Z,4.50
2019-01-06T11:01:03.701Z,4.50
2019-01-06T11:03:49.781Z,4.40
2019-01-06T11:06:32.680Z,4.40
2019-01-06T11:09:13.006Z,4.40
2019-01-06T11:12:00.258Z,4.40
2019-01-06T11:14:46.329Z,4.30
2019-01-06T11:17:33.003Z,4.20
2019-01-06T11:20:13.819Z,4.20
2019-01-06T11:23:16.066Z,4.20
2019-01-06T11:26:03.059Z,4.20
2019-01-06T11:28:44.650Z,4.20
2019-01-06T11:31:50.353Z,4.30
2019-01-06T11:34:33.019Z,4.40
2019-01-06T11:37:18.750Z,4.40
2019-01-06T11:40:05.907Z,4.40
2019-01-06T11:42:57.230Z,4.40
2019-01-06T11:45:57.565Z,4.20
2019-01-06T11:48:43.414Z,4.20
2019-01-06T11:51:37.448Z,4.30
2019-01-06T11:54:23.533Z,4.30
2019-01-06T11:57:09.609Z,4.20
2019-01-06T11:59:56.707Z,4.20
2019-01-06T12:02:56.859Z,4.30
2019-01-06T12:05:42.646Z,4.30
2019-01-06T12:08:40.980Z,4.30
2019-01-06T12:11:23.939Z,4.20
2019-01-06T12:14:09.998Z,4.20
2019-01-06T12:17:03.100Z,4.20
2019-01-06T12:20:03.442Z,4.20
2019-01-06T12:22:48.014Z,4.10
2019-01-06T12:25:43.739Z,4.10
2019-01-06T12:28:37.113Z,4.10
2019-01-06T12:31:25.094Z,4.20
2019-01-06T12:34:11.821Z,4.30
2019-01-06T12:37:14.235Z,4.20
2019-01-06T12:40:03.190Z,4.20
2019-01-06T12:42:53.166Z,4.30
2019-01-06T12:45:54.523Z,4.30
2019-01-06T12:48:49.941Z,4.30
2019-01-06T12:51:43.239Z,4.30
2019-01-06T12:54:23.762Z,4.30
2019-01-06T12:57:22.939Z,4.30
2019-01-06T13:00:08.867Z,4.40
2019-01-06T13:02:56.699Z,4.40
2019-01-06T13:05:53.198Z,4.40
2019-01-06T13:08:52.397Z,4.30
2019-01-06T13:11:56.444Z,4.30
2019-01-06T13:14:48.186Z,4.40
2019-01-06T13:17:32.671Z,4.40
2019-01-06T13:20:18.719Z,4.10
2019-01-06T13:23:08.589Z,4.10
2019-01-06T13:25:52.673Z,4.10
2019-01-06T13:28:39.363Z,4.00
2019-01-06T13:31:29.714Z,4.00
2019-01-06T13:34:14.177Z,4.10
2019-01-06T13:37:15.682Z,4.00
2019-01-06T13:40:02.795Z,4.10
2019-01-06T13:42:53.010Z,4.10
2019-01-06T13:45:37.180Z,4.20
2019-01-06T13:48:22.950Z,4.30
2019-01-06T13:51:20.994Z,4.30
2019-01-06T13:54:30.115Z,4.20
2019-01-06T13:57:17.133Z,4.10
2019-01-06T14:00:03.116Z,4.00
2019-01-06T14:02:55.959Z,4.00
2019-01-06T14:05:40.658Z,3.90
2019-01-06T14:08:26.717Z,3.90
2019-01-06T14:11:16.273Z,3.90
2019-01-06T14:14:02.346Z,3.90
2019-01-06T14:16:55.410Z,3.80
2019-01-06T14:20:02.127Z,3.80
2019-01-06T14:22:58.036Z,3.80
2019-01-06T14:26:02.920Z,3.70
2019-01-06T14:28:59.657Z,3.60
2019-01-06T14:31:46.757Z,3.50
2019-01-06T14:34:30.511Z,3.50
2019-01-06T14:37:31.277Z,3.30
2019-01-06T14:40:24.316Z,3.30
2019-01-06T14:43:27.255Z,3.30
2019-01-06T14:46:17.621Z,3.20
2019-01-06T14:49:05.022Z,3.30
2019-01-06T14:52:06.062Z,3.30
2019-01-06T14:54:51.990Z,3.30
2019-01-06T14:57:40.198Z,3.20
2019-01-06T15:00:26.429Z,3.20
2019-01-06T15:03:24.104Z,3.20
2019-01-06T15:06:17.045Z,3.20
2019-01-06T15:09:02.879Z,3.20
2019-01-06T15:12:08.332Z,3.20
2019-01-06T15:14:51.442Z,3.10
2019-01-06T15:17:37.463Z,3.10
2019-01-06T15:20:27.714Z,3.00
2019-01-06T15:23:13.854Z,3.00
2019-01-06T15:25:59.737Z,3.00
2019-01-06T15:28:39.718Z,3.00
2019-01-06T15:31:42.220Z,3.00
2019-01-06T15:34:38.698Z,3.00
2019-01-06T15:37:28.904Z,3.00
2019-01-06T15:40:17.209Z,3.00
2019-01-06T15:43:03.189Z,3.00
2019-01-06T15:45:45.755Z,3.00
2019-01-06T15:48:31.990Z,3.10
2019-01-06T15:51:21.835Z,3.20
2019-01-06T15:54:12.085Z,3.20
2019-01-06T15:57:04.604Z,3.20
2019-01-06T15:59:50.710Z,3.20
2019-01-06T16:02:47.023Z,3.30
2019-01-06T16:05:39.032Z,3.30
2019-01-06T16:08:25.017Z,3.30
2019-01-06T16:11:27.571Z,3.30
2019-01-06T16:14:13.358Z,3.30
2019-01-06T16:16:50.458Z,3.20
2019-01-06T16:19:36.554Z,3.20
2019-01-06T16:22:23.111Z,3.30
2019-01-06T16:25:09.121Z,3.20
2019-01-06T16:27:57.987Z,3.20
2019-01-06T16:31:00.290Z,3.20
2019-01-06T16:33:46.335Z,3.20
2019-01-06T16:36:36.375Z,3.20
2019-01-06T16:39:23.279Z,3.20
2019-01-06T16:42:12.042Z,3.20
2019-01-06T16:44:58.340Z,3.20
2019-01-06T16:47:42.458Z,3.20
2019-01-06T16:50:29.514Z,3.20
2019-01-06T16:53:17.485Z,3.20
2019-01-06T16:56:03.437Z,3.20
2019-01-06T16:58:46.393Z,3.20
2019-01-06T17:01:32.300Z,3.10
2019-01-06T17:04:34.531Z,3.20
2019-01-06T17:07:39.886Z,3.20
2019-01-06T17:10:36.822Z,3.30
2019-01-06T17:13:22.486Z,3.20
2019-01-06T17:16:01.038Z,3.30
2019-01-06T17:18:48.599Z,3.20
2019-01-06T17:21:48.197Z,3.20
2019-01-06T17:24:34.952Z,3.30
2019-01-06T17:27:20.722Z,3.30
2019-01-06T17:30:06.577Z,3.30
2019-01-06T17:32:48.663Z,3.30
2019-01-06T17:35:41.557Z,3.20
2019-01-06T17:38:25.664Z,3.20
2019-01-06T17:41:11.901Z,3.20
2019-01-06T17:44:03.314Z,3.10
2019-01-06T17:46:54.431Z,3.10
2019-01-06T17:49:40.499Z,3.10
2019-01-06T17:52:31.522Z,3.00
2019-01-06T17:55:17.635Z,3.00
2019-01-06T17:58:03.729Z,3.00
2019-01-06T18:00:49.910Z,2.90
2019-01-06T18:03:41.194Z,2.90
2019-01-06T18:06:21.101Z,2.90
2019-01-06T18:09:17.506Z,2.90
2019-01-06T18:12:07.718Z,2.90
2019-01-06T18:14:58.517Z,2.90
2019-01-06T18:17:51.215Z,2.90
2019-01-06T18:20:37.351Z,3.00
2019-01-06T18:23:23.314Z,3.00
2019-01-06T18:26:11.884Z,2.90
2019-01-06T18:28:59.072Z,2.90
2019-01-06T18:31:43.395Z,3.00
2019-01-06T18:34:33.285Z,3.00
2019-01-06T18:37:19.385Z,3.10
2019-01-06T18:40:02.433Z,3.10
2019-01-06T18:42:50.345Z,3.10
2019-01-06T18:45:35.029Z,3.10
2019-01-06T18:48:21.195Z,3.00
2019-01-06T18:50:59.759Z,3.00
2019-01-06T18:53:45.534Z,3.00
2019-01-06T18:56:31.709Z,3.00
2019-01-06T18:59:19.833Z,3.00
2019-01-06T19:02:00.639Z,3.10
2019-01-06T19:04:57.008Z,3.10
2019-01-06T19:07:43.418Z,3.00
2019-01-06T19:10:33.920Z,3.00
2019-01-06T19:13:35.428Z,3.00
2019-01-06T19:16:27.660Z,3.10
2019-01-06T19:19:13.474Z,3.00
2019-01-06T19:22:13.606Z,3.10
2019-01-06T19:25:06.455Z,3.00
2019-01-06T19:27:58.525Z,3.00
2019-01-06T19:30:46.913Z,3.00
2019-01-06T19:33:39.012Z,3.00
2019-01-06T19:36:36.140Z,3.00
2019-01-06T19:39:24.308Z,3.00
2019-01-06T19:42:22.758Z,3.00
2019-01-06T19:45:12.978Z,3.00
2019-01-06T19:48:00.500Z,3.00
2019-01-06T19:51:00.985Z,3.00
2019-01-06T19:53:55.083Z,3.00
2019-01-06T19:56:38.191Z,2.90
2019-01-06T19:59:28.072Z,2.90
2019-01-06T20:02:14.690Z,2.90
2019-01-06T20:05:00.615Z,3.00
2019-01-06T20:07:59.649Z,3.00
2019-01-06T20:10:45.986Z,3.00
2019-01-06T20:13:31.885Z,2.90
2019-01-06T20:16:11.049Z,2.90
2019-01-06T20:18:59.506Z,2.90
2019-01-06T20:21:53.111Z,2.90
2019-01-06T20:24:43.031Z,2.90
2019-01-06T20:27:38.836Z,2.90
2019-01-06T20:30:24.976Z,2.90
2019-01-06T20:33:07.894Z,2.90
2019-01-06T20:36:01.117Z,2.80
2019-01-06T20:38:48.150Z,2.80
2019-01-06T20:41:44.356Z,2.80
2019-01-06T20:44:30.410Z,2.80
2019-01-06T20:47:16.109Z,2.80
2019-01-06T20:49:57.682Z,2.80
2019-01-06T20:52:42.182Z,2.70
2019-01-06T20:55:36.722Z,2.70
2019-01-06T20:58:26.915Z,2.70
2019-01-06T21:01:14.022Z,2.70
2019-01-06T21:03:55.420Z,2.70
2019-01-06T21:06:45.770Z,2.70
2019-01-06T21:09:25.969Z,2.80
2019-01-06T21:12:11.866Z,2.80
2019-01-06T21:14:57.751Z,2.70
2019-01-06T21:17:41.334Z,2.70
2019-01-06T21:20:27.374Z,2.60
2019-01-06T21:23:17.454Z,2.60
2019-01-06T21:26:07.293Z,2.50
2019-01-06T21:28:55.143Z,2.50
2019-01-06T21:31:40.868Z,2.50
2019-01-06T21:34:38.423Z,2.50
2019-01-06T21:37:41.418Z,2.50
2019-01-06T21:40:31.501Z,2.50
2019-01-06T21:43:17.889Z,2.50
2019-01-06T21:46:03.090Z,2.50
2019-01-06T21:48:54.725Z,2.50
2019-01-06T21:51:34.155Z,2.40
2019-01-06T21:54:19.923Z,2.40
2019-01-06T21:57:02.643Z,2.40
2019-01-06T21:59:49.984Z,2.40
2019-01-06T22:02:44.062Z,2.40
2019-01-06T22:05:28.506Z,2.30
2019-01-06T22:08:21.399Z,2.30
2019-01-06T22:11:07.592Z,2.20
2019-01-06T22:13:51.970Z,2.20
2019-01-06T22:16:51.119Z,2.20
2019-01-06T22:19:35.108Z,2.10
2019-01-06T22:22:20.889Z,2.10
2019-01-06T22:25:17.330Z,2.10
2019-01-06T22:28:03.086Z,2.20
2019-01-06T22:30:48.865Z,2.20
2019-01-06T22:33:37.490Z,2.20
2019-01-06T22:36:24.568Z,2.30
2019-01-06T22:39:17.799Z,2.30
2019-01-06T22:42:10.859Z,2.20
2019-01-06T22:44:58.037Z,2.10
2019-01-06T22:47:39.627Z,2.10
2019-01-06T22:50:38.935Z,2.10
2019-01-06T22:53:24.972Z,2.10
2019-01-06T22:56:11.035Z,2.10
2019-01-06T22:59:05.142Z,2.10
2019-01-06T23:01:58.183Z,2.10
2019-01-06T23:04:44.336Z,2.10
2019-01-06T23:07:26.051Z,2.10
2019-01-06T23:10:18.033Z,2.10
2019-01-06T23:13:08.142Z,2.10
2019-01-06T23:15:55.140Z,2.10
2019-01-06T23:18:30.818Z,2.10
2019-01-06T23:21:17.905Z,2.10
2019-01-06T23:24:07.613Z,2.10
2019-01-06T23:27:09.904Z,2.20
2019-01-06T23:29:55.873Z,2.20
2019-01-06T23:32:37.905Z,2.20
2019-01-06T23:35:31.006Z,2.20
2019-01-06T23:38:19.821Z,2.20
2019-01-06T23:41:05.847Z,2.20
2019-01-06T23:44:01.755Z,2.20
2019-01-06T23:46:53.057Z,2.20
2019-01-06T23:49:31.307Z,2.10
2019-01-06T23:52:19.523Z,2.10
2019-01-06T23:55:05.457Z,2.10
2019-01-06T23:58:10.233Z,2.00
